Midland Park, NJ (07432)

2:17 PM EDT on September 20, 2014 (GMT -0400)
Hope Street | Change Station
CLOSE
Current Station
Personal Weather Station
Location: Ridgewood, NJ
Elevation: 89 ft
Nearby Weather Stations

Elev 89 ft 40.98 °N, 74.11 °W | Updated 4 minutes ago

Partly Cloudy
Partly Cloudy
75.0 °F
Feels Like 77 °F
N
3.1
Wind Variable Wind from SSE

Today
High -- | Low -- °F
--% Chance of Precip.
Yesterday
High -- | Low -- °F
Precip. -- in
6:42 AM 6:57 PM
Waning Crescent, 11% visible
Pressure 30.21 in
Visibility 10.0 miles
Clouds Mostly Cloudy 4500 ft
Heat Index 77 °F
Dew Point 62 °F
Humidity 63%
Rainfall 0.00 in
Snow Depth Not available.
UV 4 out of 12
Pollen 2.60 out of 12
Air Quality Not available.
Flu Activity Not available.
METAR KCDW 201753Z AUTO 16012G17KT 10SM BKN045 23/14 A3019 RMK AO2 SLP229 T02280139 10239 20133 58028 TSNO

More Conditions Fewer Conditions

Pressure 30.21 in
Visibility 10.0 miles
Clouds Mostly Cloudy 4500 ft
Heat Index 77 °F
Dew Point 62 °F
Humidity 63%
Rainfall 0.00 in
Snow Depth Not available.
UV 4 out of 12
Pollen 2.60 out of 12
Air Quality Not available.
Flu Activity Not available.
METAR KCDW 201753Z AUTO 16012G17KT 10SM BKN045 23/14 A3019 RMK AO2 SLP229 T02280139 10239 20133 58028 TSNO

More Conditions Fewer Conditions

10-Day Weather Forecast

Almanac

Astronomy

Sep. 20, 2014 Rise Set
Actual Time 6:42 AM EDT 6:57 PM EDT
Civil Twilight 6:14 AM EDT 7:24 PM EDT
Nautical Twilight 5:42 AM EDT 7:56 PM EDT
Astronomical Twilight 5:09 AM EDT 8:29 PM EDT
Moon 3:17 AM EDT 5:00 PM EDT
Length of Visible Light 13h 10m
Length of Day
12h 15m
Tomorrow will be 2m 41s shorter.
Waning Crescent, 11% of the Moon is Illuminated
Today
Waning Crescent
Sep 24
New
Oct 1
First Quarter
Oct 8
Full
Oct 15
Last Quarter

Today's Extremes

State Highs State Lows

Community

WunderPhotos

Upload Photos

1,754,921 photos uploaded!

Nearby

Snow Depth

Station Depth Elevation
No new snow has been reported.

Earthquake Activity

City Distance Mag. Time & Date
No recent earthquake activity has been reported nearby.
Minimum magnitude displayed is 2.5.

Coastal Water Temperatures

Place Temperature
Kings Point, NY 68.0 °F
Bridgeport, CT 69.1 °F

Nearby Weather Stations